sensor_id;sensor_type;location;lat;lon;timestamp;P1;durP1;ratioP1;P2;durP2;ratioP2
76094;SDS011;64821;13.710;100.604;2023-04-03T00:00:22;23.52;;;17.65;;
76094;SDS011;64821;13.710;100.604;2023-04-03T00:01:26;24.70;;;17.83;;
76094;SDS011;64821;13.710;100.604;2023-04-03T00:02:30;23.65;;;17.98;;
76094;SDS011;64821;13.710;100.604;2023-04-03T00:03:34;25.48;;;18.42;;
76094;SDS011;64821;13.710;100.604;2023-04-03T00:04:38;23.67;;;17.53;;
76094;SDS011;64821;13.710;100.604;2023-04-03T00:05:42;23.52;;;17.77;;
76094;SDS011;64821;13.710;100.604;2023-04-03T00:06:46;24.73;;;18.08;;
76094;SDS011;64821;13.710;100.604;2023-04-03T00:07:50;21.85;;;16.90;;
76094;SDS011;64821;13.710;100.604;2023-04-03T00:08:55;23.65;;;17.75;;
76094;SDS011;64821;13.710;100.604;2023-04-03T00:09:59;25.07;;;18.03;;
76094;SDS011;64821;13.710;100.604;2023-04-03T00:11:03;24.40;;;18.05;;
76094;SDS011;64821;13.710;100.604;2023-04-03T00:12:07;23.45;;;17.13;;
76094;SDS011;64821;13.710;100.604;2023-04-03T00:13:11;24.67;;;17.70;;
76094;SDS011;64821;13.710;100.604;2023-04-03T00:14:15;23.23;;;18.08;;
76094;SDS011;64821;13.710;100.604;2023-04-03T00:15:18;27.17;;;18.87;;
76094;SDS011;64821;13.710;100.604;2023-04-03T00:16:22;22.63;;;17.30;;
76094;SDS011;64821;13.710;100.604;2023-04-03T00:17:26;25.10;;;17.45;;
76094;SDS011;64821;13.710;100.604;2023-04-03T00:18:30;25.08;;;18.48;;
76094;SDS011;64821;13.710;100.604;2023-04-03T00:19:33;23.52;;;17.67;;
76094;SDS011;64821;13.710;100.604;2023-04-03T00:20:37;25.30;;;17.80;;
76094;SDS011;64821;13.710;100.604;2023-04-03T00:21:41;22.17;;;17.15;;
76094;SDS011;64821;13.710;100.604;2023-04-03T00:22:44;24.27;;;17.52;;
76094;SDS011;64821;13.710;100.604;2023-04-03T00:23:48;23.95;;;17.98;;
76094;SDS011;64821;13.710;100.604;2023-04-03T00:24:54;23.27;;;17.02;;
76094;SDS011;64821;13.710;100.604;2023-04-03T00:25:57;23.27;;;17.33;;
76094;SDS011;64821;13.710;100.604;2023-04-03T00:27:01;21.55;;;17.08;;
76094;SDS011;64821;13.710;100.604;2023-04-03T00:28:05;23.75;;;16.48;;
76094;SDS011;64821;13.710;100.604;2023-04-03T00:29:08;21.88;;;17.35;;
76094;SDS011;64821;13.710;100.604;2023-04-03T00:30:13;22.35;;;16.85;;
76094;SDS011;64821;13.710;100.604;2023-04-03T00:31:18;24.90;;;17.47;;
76094;SDS011;64821;13.710;100.604;2023-04-03T00:32:21;22.05;;;16.65;;
76094;SDS011;64821;13.710;100.604;2023-04-03T00:33:25;25.95;;;18.65;;
76094;SDS011;64821;13.710;100.604;2023-04-03T00:34:29;24.80;;;17.33;;
76094;SDS011;64821;13.710;100.604;2023-04-03T00:35:33;24.40;;;17.35;;
76094;SDS011;64821;13.710;100.604;2023-04-03T00:36:37;25.67;;;18.00;;
76094;SDS011;64821;13.710;100.604;2023-04-03T00:37:41;24.48;;;17.80;;
76094;SDS011;64821;13.710;100.604;2023-04-03T00:38:45;24.92;;;18.08;;
76094;SDS011;64821;13.710;100.604;2023-04-03T00:39:48;22.33;;;17.10;;
76094;SDS011;64821;13.710;100.604;2023-04-03T00:40:54;22.10;;;17.23;;
76094;SDS011;64821;13.710;100.604;2023-04-03T00:41:57;21.37;;;16.60;;
76094;SDS011;64821;13.710;100.604;2023-04-03T00:43:01;24.80;;;17.08;;
76094;SDS011;64821;13.710;100.604;2023-04-03T00:44:20;23.75;;;18.00;;
76094;SDS011;64821;13.710;100.604;2023-04-03T00:45:27;23.02;;;18.15;;
76094;SDS011;64821;13.710;100.604;2023-04-03T00:46:36;24.27;;;17.38;;
76094;SDS011;64821;13.710;100.604;2023-04-03T00:47:39;24.73;;;17.17;;
76094;SDS011;64821;13.710;100.604;2023-04-03T00:48:44;23.60;;;17.60;;
76094;SDS011;64821;13.710;100.604;2023-04-03T00:49:49;24.70;;;16.83;;
76094;SDS011;64821;13.710;100.604;2023-04-03T00:50:54;23.10;;;16.83;;
76094;SDS011;64821;13.710;100.604;2023-04-03T00:51:59;24.30;;;16.77;;
76094;SDS011;64821;13.710;100.604;2023-04-03T00:53:03;23.33;;;16.93;;
76094;SDS011;64821;13.710;100.604;2023-04-03T00:54:07;21.83;;;16.70;;
76094;SDS011;64821;13.710;100.604;2023-04-03T00:55:11;21.48;;;16.13;;
76094;SDS011;64821;13.710;100.604;2023-04-03T00:56:18;24.00;;;17.20;;
76094;SDS011;64821;13.710;100.604;2023-04-03T00:57:25;24.55;;;16.25;;
76094;SDS011;64821;13.710;100.604;2023-04-03T00:58:31;20.00;;;15.93;;
76094;SDS011;64821;13.710;100.604;2023-04-03T00:59:40;23.42;;;17.40;;
76094;SDS011;64821;13.710;100.604;2023-04-03T01:00:50;21.38;;;17.23;;
76094;SDS011;64821;13.710;100.604;2023-04-03T01:01:58;24.40;;;17.15;;
76094;SDS011;64821;13.710;100.604;2023-04-03T01:03:02;20.95;;;17.05;;
76094;SDS011;64821;13.710;100.604;2023-04-03T01:04:24;22.13;;;16.97;;
76094;SDS011;64821;13.710;100.604;2023-04-03T01:05:30;23.88;;;17.40;;
76094;SDS011;64821;13.710;100.604;2023-04-03T01:06:37;21.23;;;17.05;;
76094;SDS011;64821;13.710;100.604;2023-04-03T01:07:41;23.85;;;16.25;;
76094;SDS011;64821;13.710;100.604;2023-04-03T01:08:46;24.67;;;17.42;;
76094;SDS011;64821;13.710;100.604;2023-04-03T01:09:53;23.40;;;18.07;;
76094;SDS011;64821;13.710;100.604;2023-04-03T01:10:59;23.77;;;17.33;;
76094;SDS011;64821;13.710;100.604;2023-04-03T01:13:24;22.58;;;17.88;;
76094;SDS011;64821;13.710;100.604;2023-04-03T01:14:29;21.40;;;17.33;;
76094;SDS011;64821;13.710;100.604;2023-04-03T01:15:33;23.80;;;17.13;;
76094;SDS011;64821;13.710;100.604;2023-04-03T01:16:36;24.98;;;19.08;;
76094;SDS011;64821;13.710;100.604;2023-04-03T01:17:40;25.15;;;18.30;;
76094;SDS011;64821;13.710;100.604;2023-04-03T01:18:46;27.05;;;17.90;;
76094;SDS011;64821;13.710;100.604;2023-04-03T01:19:50;23.33;;;17.73;;
76094;SDS011;64821;13.710;100.604;2023-04-03T01:21:27;24.67;;;17.67;;
76094;SDS011;64821;13.710;100.604;2023-04-03T01:22:53;22.00;;;16.13;;
76094;SDS011;64821;13.710;100.604;2023-04-03T01:24:05;24.95;;;18.17;;
76094;SDS011;64821;13.710;100.604;2023-04-03T01:25:19;26.23;;;18.65;;
76094;SDS011;64821;13.710;100.604;2023-04-03T01:26:22;25.10;;;17.90;;
76094;SDS011;64821;13.710;100.604;2023-04-03T01:27:28;23.17;;;18.70;;
76094;SDS011;64821;13.710;100.604;2023-04-03T01:28:32;26.02;;;19.58;;
76094;SDS011;64821;13.710;100.604;2023-04-03T01:29:38;27.83;;;19.77;;
76094;SDS011;64821;13.710;100.604;2023-04-03T01:30:45;23.73;;;18.45;;
76094;SDS011;64821;13.710;100.604;2023-04-03T01:31:55;26.23;;;19.77;;
76094;SDS011;64821;13.710;100.604;2023-04-03T01:33:00;26.47;;;20.37;;
76094;SDS011;64821;13.710;100.604;2023-04-03T01:34:03;28.70;;;20.55;;
76094;SDS011;64821;13.710;100.604;2023-04-03T01:35:08;25.23;;;20.05;;
76094;SDS011;64821;13.710;100.604;2023-04-03T01:36:13;26.42;;;19.88;;
76094;SDS011;64821;13.710;100.604;2023-04-03T01:37:19;28.23;;;20.65;;
76094;SDS011;64821;13.710;100.604;2023-04-03T01:38:23;24.67;;;19.47;;
76094;SDS011;64821;13.710;100.604;2023-04-03T01:39:27;26.65;;;19.95;;
76094;SDS011;64821;13.710;100.604;2023-04-03T01:40:31;27.83;;;21.73;;
76094;SDS011;64821;13.710;100.604;2023-04-03T01:41:35;27.08;;;19.70;;
76094;SDS011;64821;13.710;100.604;2023-04-03T01:42:38;26.33;;;21.92;;
76094;SDS011;64821;13.710;100.604;2023-04-03T01:43:42;26.97;;;20.87;;
76094;SDS011;64821;13.710;100.604;2023-04-03T01:44:46;30.52;;;23.02;;
76094;SDS011;64821;13.710;100.604;2023-04-03T01:45:49;28.05;;;21.35;;
76094;SDS011;64821;13.710;100.604;2023-04-03T01:46:55;25.63;;;21.33;;
76094;SDS011;64821;13.710;100.604;2023-04-03T01:47:58;28.35;;;22.05;;
76094;SDS011;64821;13.710;100.604;2023-04-03T01:49:02;32.00;;;23.53;;
76094;SDS011;64821;13.710;100.604;2023-04-03T01:50:06;27.60;;;22.02;;
76094;SDS011;64821;13.710;100.604;2023-04-03T01:51:10;30.05;;;22.70;;
76094;SDS011;64821;13.710;100.604;2023-04-03T01:52:14;31.50;;;22.50;;
76094;SDS011;64821;13.710;100.604;2023-04-03T01:53:17;28.17;;;21.50;;
76094;SDS011;64821;13.710;100.604;2023-04-03T01:54:21;26.70;;;21.07;;
76094;SDS011;64821;13.710;100.604;2023-04-03T01:55:25;29.73;;;21.83;;
76094;SDS011;64821;13.710;100.604;2023-04-03T01:56:28;27.92;;;22.63;;
76094;SDS011;64821;13.710;100.604;2023-04-03T01:57:32;28.13;;;22.52;;
76094;SDS011;64821;13.710;100.604;2023-04-03T01:58:36;27.83;;;22.30;;
76094;SDS011;64821;13.710;100.604;2023-04-03T01:59:39;28.77;;;22.63;;
76094;SDS011;64821;13.710;100.604;2023-04-03T02:00:43;30.42;;;23.45;;
76094;SDS011;64821;13.710;100.604;2023-04-03T02:01:47;27.08;;;23.10;;
76094;SDS011;64821;13.710;100.604;2023-04-03T02:02:52;28.90;;;23.17;;
76094;SDS011;64821;13.710;100.604;2023-04-03T02:03:56;30.52;;;24.20;;
76094;SDS011;64821;13.710;100.604;2023-04-03T02:05:00;27.97;;;23.63;;
76094;SDS011;64821;13.710;100.604;2023-04-03T02:06:04;31.20;;;24.00;;
76094;SDS011;64821;13.710;100.604;2023-04-03T02:07:08;29.30;;;22.88;;
76094;SDS011;64821;13.710;100.604;2023-04-03T02:08:12;30.90;;;23.63;;
76094;SDS011;64821;13.710;100.604;2023-04-03T02:09:15;26.83;;;21.92;;
76094;SDS011;64821;13.710;100.604;2023-04-03T02:10:19;30.50;;;23.80;;
76094;SDS011;64821;13.710;100.604;2023-04-03T02:11:23;28.20;;;23.00;;
76094;SDS011;64821;13.710;100.604;2023-04-03T02:12:26;26.00;;;21.98;;
76094;SDS011;64821;13.710;100.604;2023-04-03T02:13:30;28.98;;;22.70;;
76094;SDS011;64821;13.710;100.604;2023-04-03T02:14:34;28.58;;;22.83;;
76094;SDS011;64821;13.710;100.604;2023-04-03T02:15:37;29.50;;;22.50;;
76094;SDS011;64821;13.710;100.604;2023-04-03T02:16:41;31.08;;;21.75;;
76094;SDS011;64821;13.710;100.604;2023-04-03T02:17:45;28.95;;;22.42;;
76094;SDS011;64821;13.710;100.604;2023-04-03T02:18:50;26.02;;;21.75;;
76094;SDS011;64821;13.710;100.604;2023-04-03T02:19:54;27.08;;;21.58;;
76094;SDS011;64821;13.710;100.604;2023-04-03T02:20:57;29.17;;;23.10;;
76094;SDS011;64821;13.710;100.604;2023-04-03T02:22:01;28.83;;;22.40;;
76094;SDS011;64821;13.710;100.604;2023-04-03T02:23:05;29.48;;;23.38;;
76094;SDS011;64821;13.710;100.604;2023-04-03T02:24:09;28.58;;;22.30;;
76094;SDS011;64821;13.710;100.604;2023-04-03T02:25:12;28.95;;;22.52;;
76094;SDS011;64821;13.710;100.604;2023-04-03T02:26:16;31.43;;;23.47;;
76094;SDS011;64821;13.710;100.604;2023-04-03T02:52:34;33.27;;;26.37;;
76094;SDS011;64821;13.710;100.604;2023-04-03T02:53:38;35.55;;;28.10;;
76094;SDS011;64821;13.710;100.604;2023-04-03T02:54:42;34.25;;;28.50;;
76094;SDS011;64821;13.710;100.604;2023-04-03T02:55:45;34.05;;;28.60;;
76094;SDS011;64821;13.710;100.604;2023-04-03T02:56:49;33.58;;;27.23;;
76094;SDS011;64821;13.710;100.604;2023-04-03T02:57:53;32.07;;;26.03;;
76094;SDS011;64821;13.710;100.604;2023-04-03T02:58:57;33.25;;;25.85;;
76094;SDS011;64821;13.710;100.604;2023-04-03T03:00:00;28.60;;;25.58;;
76094;SDS011;64821;13.710;100.604;2023-04-03T03:01:04;33.47;;;24.70;;
76094;SDS011;64821;13.710;100.604;2023-04-03T03:02:08;32.47;;;24.63;;
76094;SDS011;64821;13.710;100.604;2023-04-03T03:03:12;31.90;;;24.80;;
76094;SDS011;64821;13.710;100.604;2023-04-03T03:04:16;27.85;;;24.85;;
76094;SDS011;64821;13.710;100.604;2023-04-03T03:05:19;30.30;;;24.48;;
76094;SDS011;64821;13.710;100.604;2023-04-03T03:06:23;31.30;;;26.67;;
76094;SDS011;64821;13.710;100.604;2023-04-03T03:07:27;29.73;;;25.63;;
76094;SDS011;64821;13.710;100.604;2023-04-03T03:08:32;32.87;;;26.40;;
76094;SDS011;64821;13.710;100.604;2023-04-03T03:09:36;31.95;;;25.70;;
76094;SDS011;64821;13.710;100.604;2023-04-03T03:10:40;29.80;;;26.58;;
76094;SDS011;64821;13.710;100.604;2023-04-03T03:11:43;30.25;;;24.73;;
76094;SDS011;64821;13.710;100.604;2023-04-03T03:12:47;31.60;;;25.40;;
76094;SDS011;64821;13.710;100.604;2023-04-03T03:13:51;29.87;;;24.33;;
76094;SDS011;64821;13.710;100.604;2023-04-03T03:14:55;29.27;;;24.45;;
76094;SDS011;64821;13.710;100.604;2023-04-03T03:15:58;31.35;;;25.52;;
76094;SDS011;64821;13.710;100.604;2023-04-03T03:17:02;31.98;;;25.77;;
76094;SDS011;64821;13.710;100.604;2023-04-03T03:18:06;32.63;;;26.13;;
76094;SDS011;64821;13.710;100.604;2023-04-03T03:19:10;28.93;;;24.67;;
76094;SDS011;64821;13.710;100.604;2023-04-03T03:20:13;29.15;;;23.63;;
76094;SDS011;64821;13.710;100.604;2023-04-03T03:21:17;32.88;;;26.42;;
76094;SDS011;64821;13.710;100.604;2023-04-03T03:22:21;31.00;;;24.45;;
76094;SDS011;64821;13.710;100.604;2023-04-03T03:23:25;33.33;;;26.80;;
76094;SDS011;64821;13.710;100.604;2023-04-03T03:24:31;30.73;;;23.67;;
76094;SDS011;64821;13.710;100.604;2023-04-03T03:25:37;29.13;;;23.65;;
76094;SDS011;64821;13.710;100.604;2023-04-03T03:26:42;29.70;;;24.42;;
76094;SDS011;64821;13.710;100.604;2023-04-03T03:27:46;28.83;;;24.67;;
76094;SDS011;64821;13.710;100.604;2023-04-03T03:28:49;29.67;;;24.85;;
76094;SDS011;64821;13.710;100.604;2023-04-03T03:29:53;30.67;;;24.93;;
76094;SDS011;64821;13.710;100.604;2023-04-03T03:30:57;31.20;;;25.00;;
76094;SDS011;64821;13.710;100.604;2023-04-03T03:32:01;29.75;;;24.08;;
76094;SDS011;64821;13.710;100.604;2023-04-03T03:33:05;28.33;;;23.67;;
76094;SDS011;64821;13.710;100.604;2023-04-03T03:34:08;31.33;;;23.80;;
76094;SDS011;64821;13.710;100.604;2023-04-03T03:35:12;29.33;;;22.90;;
76094;SDS011;64821;13.710;100.604;2023-04-03T03:36:16;27.05;;;21.75;;
76094;SDS011;64821;13.710;100.604;2023-04-03T03:37:19;29.92;;;22.73;;
76094;SDS011;64821;13.710;100.604;2023-04-03T03:38:23;28.00;;;21.17;;
76094;SDS011;64821;13.710;100.604;2023-04-03T03:39:27;26.95;;;21.58;;
76094;SDS011;64821;13.710;100.604;2023-04-03T03:40:33;28.00;;;22.40;;
76094;SDS011;64821;13.710;100.604;2023-04-03T03:41:36;28.08;;;22.73;;
76094;SDS011;64821;13.710;100.604;2023-04-03T03:42:40;27.45;;;20.98;;
76094;SDS011;64821;13.710;100.604;2023-04-03T03:43:43;29.45;;;22.92;;
76094;SDS011;64821;13.710;100.604;2023-04-03T03:44:47;30.00;;;24.45;;
76094;SDS011;64821;13.710;100.604;2023-04-03T03:45:51;27.77;;;23.03;;
76094;SDS011;64821;13.710;100.604;2023-04-03T03:46:55;26.95;;;22.67;;
76094;SDS011;64821;13.710;100.604;2023-04-03T03:47:59;27.92;;;23.42;;
76094;SDS011;64821;13.710;100.604;2023-04-03T03:49:06;26.90;;;22.23;;
76094;SDS011;64821;13.710;100.604;2023-04-03T03:50:10;28.73;;;23.25;;
76094;SDS011;64821;13.710;100.604;2023-04-03T03:51:14;25.73;;;21.70;;
76094;SDS011;64821;13.710;100.604;2023-04-03T03:52:18;31.95;;;23.05;;
76094;SDS011;64821;13.710;100.604;2023-04-03T03:53:21;26.10;;;21.08;;
76094;SDS011;64821;13.710;100.604;2023-04-03T03:54:25;25.25;;;20.30;;
76094;SDS011;64821;13.710;100.604;2023-04-03T03:55:29;24.25;;;20.55;;
76094;SDS011;64821;13.710;100.604;2023-04-03T03:56:34;25.27;;;19.83;;
76094;SDS011;64821;13.710;100.604;2023-04-03T03:57:38;25.30;;;20.30;;
76094;SDS011;64821;13.710;100.604;2023-04-03T03:58:41;24.77;;;21.05;;
76094;SDS011;64821;13.710;100.604;2023-04-03T03:59:45;24.45;;;20.20;;
76094;SDS011;64821;13.710;100.604;2023-04-03T04:00:49;23.98;;;20.27;;
76094;SDS011;64821;13.710;100.604;2023-04-03T04:01:52;29.93;;;21.77;;
76094;SDS011;64821;13.710;100.604;2023-04-03T04:02:56;26.83;;;20.33;;
76094;SDS011;64821;13.710;100.604;2023-04-03T04:04:00;26.00;;;20.25;;
76094;SDS011;64821;13.710;100.604;2023-04-03T04:05:07;26.75;;;20.50;;
76094;SDS011;64821;13.710;100.604;2023-04-03T04:06:10;24.42;;;20.65;;
76094;SDS011;64821;13.710;100.604;2023-04-03T04:07:14;24.50;;;20.27;;
76094;SDS011;64821;13.710;100.604;2023-04-03T04:08:18;24.05;;;19.20;;
76094;SDS011;64821;13.710;100.604;2023-04-03T04:09:21;26.10;;;21.65;;
76094;SDS011;64821;13.710;100.604;2023-04-03T04:10:25;29.40;;;21.23;;
76094;SDS011;64821;13.710;100.604;2023-04-03T04:11:29;30.27;;;21.70;;
76094;SDS011;64821;13.710;100.604;2023-04-03T04:12:34;26.37;;;20.97;;
76094;SDS011;64821;13.710;100.604;2023-04-03T04:13:38;28.75;;;22.42;;
76094;SDS011;64821;13.710;100.604;2023-04-03T04:14:42;32.75;;;25.98;;
76094;SDS011;64821;13.710;100.604;2023-04-03T04:15:46;30.77;;;25.17;;
76094;SDS011;64821;13.710;100.604;2023-04-03T04:16:49;32.00;;;24.60;;
76094;SDS011;64821;13.710;100.604;2023-04-03T04:17:53;30.73;;;24.80;;
76094;SDS011;64821;13.710;100.604;2023-04-03T04:18:57;30.60;;;24.85;;
76094;SDS011;64821;13.710;100.604;2023-04-03T04:20:00;28.25;;;23.30;;
76094;SDS011;64821;13.710;100.604;2023-04-03T04:21:04;32.95;;;25.05;;
76094;SDS011;64821;13.710;100.604;2023-04-03T04:22:08;30.40;;;24.33;;
76094;SDS011;64821;13.710;100.604;2023-04-03T04:23:12;30.93;;;24.53;;
76094;SDS011;64821;13.710;100.604;2023-04-03T04:24:15;29.10;;;24.10;;
76094;SDS011;64821;13.710;100.604;2023-04-03T04:25:19;30.25;;;23.65;;
76094;SDS011;64821;13.710;100.604;2023-04-03T04:26:22;30.42;;;22.70;;
76094;SDS011;64821;13.710;100.604;2023-04-03T04:27:26;29.05;;;24.23;;
76094;SDS011;64821;13.710;100.604;2023-04-03T04:28:31;29.07;;;23.93;;
76094;SDS011;64821;13.710;100.604;2023-04-03T04:29:35;32.05;;;24.10;;
76094;SDS011;64821;13.710;100.604;2023-04-03T04:30:39;28.23;;;22.50;;
76094;SDS011;64821;13.710;100.604;2023-04-03T04:31:43;29.40;;;22.80;;
76094;SDS011;64821;13.710;100.604;2023-04-03T04:32:46;30.35;;;24.02;;
76094;SDS011;64821;13.710;100.604;2023-04-03T04:33:50;31.47;;;25.87;;
76094;SDS011;64821;13.710;100.604;2023-04-03T04:34:54;28.52;;;23.02;;
76094;SDS011;64821;13.710;100.604;2023-04-03T04:35:58;28.63;;;23.58;;
76094;SDS011;64821;13.710;100.604;2023-04-03T04:37:02;28.00;;;24.02;;
76094;SDS011;64821;13.710;100.604;2023-04-03T04:38:05;31.13;;;24.60;;
76094;SDS011;64821;13.710;100.604;2023-04-03T04:39:09;28.10;;;23.80;;
76094;SDS011;64821;13.710;100.604;2023-04-03T04:40:13;30.83;;;24.33;;
76094;SDS011;64821;13.710;100.604;2023-04-03T04:41:17;33.97;;;26.65;;
76094;SDS011;64821;13.710;100.604;2023-04-03T04:42:20;32.10;;;25.52;;
76094;SDS011;64821;13.710;100.604;2023-04-03T04:43:24;32.40;;;25.58;;
76094;SDS011;64821;13.710;100.604;2023-04-03T04:44:29;32.73;;;25.80;;
76094;SDS011;64821;13.710;100.604;2023-04-03T04:45:33;30.27;;;25.70;;
76094;SDS011;64821;13.710;100.604;2023-04-03T04:46:37;30.27;;;25.67;;
76094;SDS011;64821;13.710;100.604;2023-04-03T04:47:41;32.08;;;26.10;;
76094;SDS011;64821;13.710;100.604;2023-04-03T04:48:45;30.25;;;25.40;;
76094;SDS011;64821;13.710;100.604;2023-04-03T04:49:51;33.63;;;26.60;;
76094;SDS011;64821;13.710;100.604;2023-04-03T04:50:54;31.15;;;25.63;;
76094;SDS011;64821;13.710;100.604;2023-04-03T04:51:58;31.20;;;26.35;;
76094;SDS011;64821;13.710;100.604;2023-04-03T04:53:02;30.98;;;26.15;;
76094;SDS011;64821;13.710;100.604;2023-04-03T04:54:06;31.70;;;25.45;;
76094;SDS011;64821;13.710;100.604;2023-04-03T04:55:09;32.93;;;25.83;;
76094;SDS011;64821;13.710;100.604;2023-04-03T04:56:13;34.70;;;26.83;;
76094;SDS011;64821;13.710;100.604;2023-04-03T04:57:17;31.73;;;25.60;;
76094;SDS011;64821;13.710;100.604;2023-04-03T04:58:20;31.95;;;27.70;;
76094;SDS011;64821;13.710;100.604;2023-04-03T04:59:24;32.28;;;26.58;;
76094;SDS011;64821;13.710;100.604;2023-04-03T05:00:29;32.87;;;27.77;;
76094;SDS011;64821;13.710;100.604;2023-04-03T05:01:33;30.98;;;25.55;;
76094;SDS011;64821;13.710;100.604;2023-04-03T05:02:37;38.53;;;28.88;;
76094;SDS011;64821;13.710;100.604;2023-04-03T05:03:41;37.53;;;28.77;;
76094;SDS011;64821;13.710;100.604;2023-04-03T05:04:44;30.20;;;26.23;;
76094;SDS011;64821;13.710;100.604;2023-04-03T05:05:48;34.00;;;27.23;;
76094;SDS011;64821;13.710;100.604;2023-04-03T05:06:52;35.97;;;27.15;;
76094;SDS011;64821;13.710;100.604;2023-04-03T05:07:56;33.33;;;28.05;;
76094;SDS011;64821;13.710;100.604;2023-04-03T05:08:59;34.42;;;28.05;;
76094;SDS011;64821;13.710;100.604;2023-04-03T05:10:04;32.92;;;28.10;;
76094;SDS011;64821;13.710;100.604;2023-04-03T05:11:08;35.07;;;29.67;;
76094;SDS011;64821;13.710;100.604;2023-04-03T05:12:12;35.55;;;28.30;;
76094;SDS011;64821;13.710;100.604;2023-04-03T05:13:16;32.40;;;27.25;;
76094;SDS011;64821;13.710;100.604;2023-04-03T05:14:19;35.70;;;28.27;;
76094;SDS011;64821;13.710;100.604;2023-04-03T05:15:23;32.70;;;27.98;;
76094;SDS011;64821;13.710;100.604;2023-04-03T05:16:28;36.63;;;28.33;;
76094;SDS011;64821;13.710;100.604;2023-04-03T05:17:32;36.60;;;29.83;;
76094;SDS011;64821;13.710;100.604;2023-04-03T05:18:36;36.00;;;30.63;;
76094;SDS011;64821;13.710;100.604;2023-04-03T05:19:40;33.83;;;28.50;;
76094;SDS011;64821;13.710;100.604;2023-04-03T05:20:43;35.38;;;29.95;;
76094;SDS011;64821;13.710;100.604;2023-04-03T05:21:47;34.97;;;29.20;;
76094;SDS011;64821;13.710;100.604;2023-04-03T05:22:51;38.03;;;28.00;;
76094;SDS011;64821;13.710;100.604;2023-04-03T05:23:55;33.42;;;28.10;;
76094;SDS011;64821;13.710;100.604;2023-04-03T05:24:58;34.10;;;30.40;;
76094;SDS011;64821;13.710;100.604;2023-04-03T05:26:02;34.13;;;28.98;;
76094;SDS011;64821;13.710;100.604;2023-04-03T05:27:06;35.13;;;27.97;;
76094;SDS011;64821;13.710;100.604;2023-04-03T05:28:10;28.27;;;25.25;;
76094;SDS011;64821;13.710;100.604;2023-04-03T05:29:14;34.47;;;28.80;;
76094;SDS011;64821;13.710;100.604;2023-04-03T05:30:17;32.92;;;27.02;;
76094;SDS011;64821;13.710;100.604;2023-04-03T05:31:21;34.47;;;28.65;;
76094;SDS011;64821;13.710;100.604;2023-04-03T05:32:27;33.17;;;27.93;;
76094;SDS011;64821;13.710;100.604;2023-04-03T05:33:30;36.25;;;29.48;;
76094;SDS011;64821;13.710;100.604;2023-04-03T05:34:34;34.42;;;29.27;;
76094;SDS011;64821;13.710;100.604;2023-04-03T05:35:38;37.30;;;29.33;;
76094;SDS011;64821;13.710;100.604;2023-04-03T05:36:42;32.40;;;28.52;;
76094;SDS011;64821;13.710;100.604;2023-04-03T05:37:45;33.67;;;28.80;;
76094;SDS011;64821;13.710;100.604;2023-04-03T05:38:49;32.22;;;27.77;;
76094;SDS011;64821;13.710;100.604;2023-04-03T05:39:53;34.47;;;28.30;;
76094;SDS011;64821;13.710;100.604;2023-04-03T05:40:57;34.85;;;28.40;;
76094;SDS011;64821;13.710;100.604;2023-04-03T05:42:01;39.40;;;30.40;;
76094;SDS011;64821;13.710;100.604;2023-04-03T05:43:04;31.13;;;26.43;;
76094;SDS011;64821;13.710;100.604;2023-04-03T05:44:08;33.67;;;27.33;;
76094;SDS011;64821;13.710;100.604;2023-04-03T05:45:12;33.75;;;29.25;;
76094;SDS011;64821;13.710;100.604;2023-04-03T05:46:16;32.70;;;28.15;;
76094;SDS011;64821;13.710;100.604;2023-04-03T05:47:21;32.95;;;29.40;;
76094;SDS011;64821;13.710;100.604;2023-04-03T05:48:27;33.37;;;27.70;;
76094;SDS011;64821;13.710;100.604;2023-04-03T05:49:30;35.83;;;29.52;;
76094;SDS011;64821;13.710;100.604;2023-04-03T05:50:34;35.05;;;29.92;;
76094;SDS011;64821;13.710;100.604;2023-04-03T05:51:38;35.70;;;28.77;;
76094;SDS011;64821;13.710;100.604;2023-04-03T05:52:43;32.95;;;28.05;;
76094;SDS011;64821;13.710;100.604;2023-04-03T05:53:51;35.47;;;28.57;;
76094;SDS011;64821;13.710;100.604;2023-04-03T05:54:59;37.08;;;31.23;;
76094;SDS011;64821;13.710;100.604;2023-04-03T05:56:03;35.72;;;31.48;;
76094;SDS011;64821;13.710;100.604;2023-04-03T05:57:07;39.25;;;31.05;;
76094;SDS011;64821;13.710;100.604;2023-04-03T05:58:11;36.85;;;30.15;;
76094;SDS011;64821;13.710;100.604;2023-04-03T05:59:14;33.83;;;30.17;;
76094;SDS011;64821;13.710;100.604;2023-04-03T06:00:19;38.70;;;31.73;;
76094;SDS011;64821;13.710;100.604;2023-04-03T06:01:23;35.03;;;29.80;;
76094;SDS011;64821;13.710;100.604;2023-04-03T06:02:26;34.78;;;29.33;;
76094;SDS011;64821;13.710;100.604;2023-04-03T06:03:32;35.70;;;30.23;;
76094;SDS011;64821;13.710;100.604;2023-04-03T06:04:39;33.37;;;28.90;;
76094;SDS011;64821;13.710;100.604;2023-04-03T06:05:43;33.47;;;28.83;;
76094;SDS011;64821;13.710;100.604;2023-04-03T06:06:47;37.75;;;31.25;;
76094;SDS011;64821;13.710;100.604;2023-04-03T06:07:52;38.60;;;31.17;;
76094;SDS011;64821;13.710;100.604;2023-04-03T06:08:56;34.33;;;28.25;;
76094;SDS011;64821;13.710;100.604;2023-04-03T06:10:00;33.63;;;27.90;;
76094;SDS011;64821;13.710;100.604;2023-04-03T06:11:04;34.63;;;28.60;;
76094;SDS011;64821;13.710;100.604;2023-04-03T06:12:08;41.65;;;30.42;;
76094;SDS011;64821;13.710;100.604;2023-04-03T06:13:12;35.33;;;27.08;;
76094;SDS011;64821;13.710;100.604;2023-04-03T06:14:15;31.08;;;26.80;;
76094;SDS011;64821;13.710;100.604;2023-04-03T06:15:19;29.40;;;25.63;;
76094;SDS011;64821;13.710;100.604;2023-04-03T06:16:23;31.92;;;26.70;;
76094;SDS011;64821;13.710;100.604;2023-04-03T06:17:27;30.58;;;26.35;;
76094;SDS011;64821;13.710;100.604;2023-04-03T06:18:45;31.75;;;26.95;;
76094;SDS011;64821;13.710;100.604;2023-04-03T06:19:49;31.50;;;26.55;;
76094;SDS011;64821;13.710;100.604;2023-04-03T06:20:53;33.50;;;28.00;;
76094;SDS011;64821;13.710;100.604;2023-04-03T06:21:57;32.25;;;27.33;;
76094;SDS011;64821;13.710;100.604;2023-04-03T06:23:01;31.17;;;27.33;;
76094;SDS011;64821;13.710;100.604;2023-04-03T06:24:05;33.85;;;28.98;;
76094;SDS011;64821;13.710;100.604;2023-04-03T06:25:09;34.97;;;29.30;;
76094;SDS011;64821;13.710;100.604;2023-04-03T06:26:16;32.03;;;25.80;;
76094;SDS011;64821;13.710;100.604;2023-04-03T06:27:20;33.88;;;29.75;;
76094;SDS011;64821;13.710;100.604;2023-04-03T06:28:24;35.38;;;30.10;;
76094;SDS011;64821;13.710;100.604;2023-04-03T06:29:28;35.33;;;28.63;;
76094;SDS011;64821;13.710;100.604;2023-04-03T06:30:32;33.33;;;28.70;;
76094;SDS011;64821;13.710;100.604;2023-04-03T06:31:36;34.93;;;29.77;;
76094;SDS011;64821;13.710;100.604;2023-04-03T06:32:40;33.92;;;28.70;;